sensor_id;sensor_type;location;lat;lon;timestamp;pressure;altitude;pressure_sealevel;temperature;humidity
9969;BME280;5025;48.890;9.278;2023-03-01T00:02:10;99599.03;;;0.81;58.12
9969;BME280;5025;48.890;9.278;2023-03-01T00:04:35;99594.69;;;0.80;57.99
9969;BME280;5025;48.890;9.278;2023-03-01T00:07:01;99600.00;;;0.80;58.31
9969;BME280;5025;48.890;9.278;2023-03-01T00:09:26;99601.00;;;0.79;58.15
9969;BME280;5025;48.890;9.278;2023-03-01T00:11:52;99598.34;;;0.79;58.14
9969;BME280;5025;48.890;9.278;2023-03-01T00:14:17;99597.94;;;0.74;57.95
9969;BME280;5025;48.890;9.278;2023-03-01T00:16:43;99589.16;;;0.64;58.10
9969;BME280;5025;48.890;9.278;2023-03-01T00:19:15;99596.88;;;0.57;58.52
9969;BME280;5025;48.890;9.278;2023-03-01T00:21:41;99597.44;;;0.51;58.56
9969;BME280;5025;48.890;9.278;2023-03-01T00:24:06;99597.28;;;0.52;58.69
9969;BME280;5025;48.890;9.278;2023-03-01T00:26:32;99604.28;;;0.53;58.77
9969;BME280;5025;48.890;9.278;2023-03-01T00:28:58;99600.38;;;0.58;58.55
9969;BME280;5025;48.890;9.278;2023-03-01T00:31:26;99599.38;;;0.59;58.57
9969;BME280;5025;48.890;9.278;2023-03-01T00:33:54;99593.91;;;0.60;58.62
9969;BME280;5025;48.890;9.278;2023-03-01T00:36:22;99600.09;;;0.61;58.61
9969;BME280;5025;48.890;9.278;2023-03-01T00:38:48;99599.09;;;0.62;58.59
9969;BME280;5025;48.890;9.278;2023-03-01T00:41:15;99599.09;;;0.62;58.39
9969;BME280;5025;48.890;9.278;2023-03-01T00:43:42;99593.91;;;0.60;58.63
9969;BME280;5025;48.890;9.278;2023-03-01T00:46:13;99597.44;;;0.61;58.71
9969;BME280;5025;48.890;9.278;2023-03-01T00:48:39;99594.78;;;0.61;58.56
9969;BME280;5025;48.890;9.278;2023-03-01T00:51:09;99591.13;;;0.62;58.70
9969;BME280;5025;48.890;9.278;2023-03-01T00:53:36;99596.44;;;0.62;58.72
9969;BME280;5025;48.890;9.278;2023-03-01T00:56:02;99593.09;;;0.60;58.58
9969;BME280;5025;48.890;9.278;2023-03-01T00:58:28;99596.72;;;0.59;58.46
9969;BME280;5025;48.890;9.278;2023-03-01T01:00:53;99598.69;;;0.57;58.55
9969;BME280;5025;48.890;9.278;2023-03-01T01:03:19;99596.72;;;0.59;58.65
9969;BME280;5025;48.890;9.278;2023-03-01T01:05:44;99593.38;;;0.57;58.74
9969;BME280;5025;48.890;9.278;2023-03-01T01:08:10;99592.84;;;0.53;58.88
9969;BME280;5025;48.890;9.278;2023-03-01T01:10:35;99596.47;;;0.52;58.63
9969;BME280;5025;48.890;9.278;2023-03-01T01:13:01;99597.03;;;0.46;58.85
9969;BME280;5025;48.890;9.278;2023-03-01T01:15:27;99596.50;;;0.42;58.91
9969;BME280;5025;48.890;9.278;2023-03-01T01:17:52;99589.50;;;0.41;58.82
9969;BME280;5025;48.890;9.278;2023-03-01T01:20:18;99594.13;;;0.39;58.93
9969;BME280;5025;48.890;9.278;2023-03-01T01:22:43;99593.13;;;0.40;58.98
9969;BME280;5025;48.890;9.278;2023-03-01T01:25:08;99580.56;;;0.42;59.21
9969;BME280;5025;48.890;9.278;2023-03-01T01:27:34;99584.19;;;0.41;59.06
9969;BME280;5025;48.890;9.278;2023-03-01T01:29:59;99583.34;;;0.41;59.03
9969;BME280;5025;48.890;9.278;2023-03-01T01:32:24;99578.34;;;0.38;59.12
9969;BME280;5025;48.890;9.278;2023-03-01T01:34:50;99573.16;;;0.36;59.17
9969;BME280;5025;48.890;9.278;2023-03-01T01:37:15;99561.53;;;0.37;59.32
9969;BME280;5025;48.890;9.278;2023-03-01T01:39:40;99556.22;;;0.37;59.27
9969;BME280;5025;48.890;9.278;2023-03-01T01:42:06;99550.91;;;0.37;59.27
9969;BME280;5025;48.890;9.278;2023-03-01T01:44:33;99555.25;;;0.38;59.41
9969;BME280;5025;48.890;9.278;2023-03-01T01:47:17;99551.91;;;0.36;59.31
9969;BME280;5025;48.890;9.278;2023-03-01T01:49:56;99551.75;;;0.38;59.51
9969;BME280;5025;48.890;9.278;2023-03-01T01:52:31;99549.78;;;0.40;59.55
9969;BME280;5025;48.890;9.278;2023-03-01T01:55:00;99540.00;;;0.40;59.46
9969;BME280;5025;48.890;9.278;2023-03-01T01:57:32;99546.84;;;0.43;59.50
9969;BME280;5025;48.890;9.278;2023-03-01T02:00:03;99541.38;;;0.44;59.70
9969;BME280;5025;48.890;9.278;2023-03-01T02:02:29;99546.16;;;0.41;59.78
9969;BME280;5025;48.890;9.278;2023-03-01T02:05:03;99539.56;;;0.45;59.83
9969;BME280;5025;48.890;9.278;2023-03-01T02:07:36;99534.81;;;0.48;59.65
9969;BME280;5025;48.890;9.278;2023-03-01T02:10:03;99537.31;;;0.50;59.56
9969;BME280;5025;48.890;9.278;2023-03-01T02:12:29;99535.50;;;0.50;59.80
9969;BME280;5025;48.890;9.278;2023-03-01T02:14:54;99527.38;;;0.52;59.95
9969;BME280;5025;48.890;9.278;2023-03-01T02:17:21;99525.97;;;0.58;59.77
9969;BME280;5025;48.890;9.278;2023-03-01T02:22:33;99511.66;;;0.59;60.06
9969;BME280;5025;48.890;9.278;2023-03-01T02:27:52;99508.56;;;0.63;59.88
9969;BME280;5025;48.890;9.278;2023-03-01T02:30:21;99517.41;;;0.64;59.90
9969;BME280;5025;48.890;9.278;2023-03-01T02:32:48;99509.44;;;0.64;60.24
9969;BME280;5025;48.890;9.278;2023-03-01T02:35:16;99504.78;;;0.66;60.01
9969;BME280;5025;48.890;9.278;2023-03-01T02:37:44;99496.53;;;0.69;60.17
9969;BME280;5025;48.890;9.278;2023-03-01T02:40:14;99493.72;;;0.70;60.10
9969;BME280;5025;48.890;9.278;2023-03-01T02:43:00;99490.75;;;0.74;60.15
9969;BME280;5025;48.890;9.278;2023-03-01T02:45:27;99483.31;;;0.77;60.34
9969;BME280;5025;48.890;9.278;2023-03-01T02:47:57;99488.34;;;0.80;60.32
9969;BME280;5025;48.890;9.278;2023-03-01T02:50:41;99490.03;;;0.81;60.46
9969;BME280;5025;48.890;9.278;2023-03-01T02:53:21;99480.38;;;0.80;60.47
9969;BME280;5025;48.890;9.278;2023-03-01T02:55:52;99477.03;;;0.78;60.25
9969;BME280;5025;48.890;9.278;2023-03-01T02:58:17;99481.22;;;0.81;60.35
9969;BME280;5025;48.890;9.278;2023-03-01T03:00:43;99475.75;;;0.82;60.39
9969;BME280;5025;48.890;9.278;2023-03-01T03:03:20;99482.19;;;0.80;60.72
9969;BME280;5025;48.890;9.278;2023-03-01T03:05:45;99477.03;;;0.78;60.41
9969;BME280;5025;48.890;9.278;2023-03-01T03:08:11;99478.41;;;0.82;60.50
9969;BME280;5025;48.890;9.278;2023-03-01T03:10:39;99467.34;;;0.87;60.27
9969;BME280;5025;48.890;9.278;2023-03-01T03:13:07;99467.19;;;0.88;60.35
9969;BME280;5025;48.890;9.278;2023-03-01T03:15:33;99469.00;;;0.88;60.52
9969;BME280;5025;48.890;9.278;2023-03-01T03:18:05;99463.38;;;0.91;60.46
9969;BME280;5025;48.890;9.278;2023-03-01T03:20:31;99466.19;;;0.89;60.38
9969;BME280;5025;48.890;9.278;2023-03-01T03:22:57;99464.22;;;0.92;60.32
9969;BME280;5025;48.890;9.278;2023-03-01T03:25:24;99462.53;;;0.91;60.45
9969;BME280;5025;48.890;9.278;2023-03-01T03:27:50;99463.22;;;0.93;60.20
9969;BME280;5025;48.890;9.278;2023-03-01T03:30:23;99472.88;;;0.94;60.28
9969;BME280;5025;48.890;9.278;2023-03-01T03:32:49;99466.75;;;0.93;60.23
9969;BME280;5025;48.890;9.278;2023-03-01T03:35:20;99464.91;;;0.94;60.27
9969;BME280;5025;48.890;9.278;2023-03-01T03:37:46;99461.41;;;0.93;60.46
9969;BME280;5025;48.890;9.278;2023-03-01T03:40:28;99460.97;;;0.98;60.07
9969;BME280;5025;48.890;9.278;2023-03-01T03:42:55;99460.25;;;0.96;60.23
9969;BME280;5025;48.890;9.278;2023-03-01T03:45:20;99463.47;;;0.99;60.09
9969;BME280;5025;48.890;9.278;2023-03-01T03:47:46;99461.66;;;1.00;60.25
9969;BME280;5025;48.890;9.278;2023-03-01T03:50:12;99467.78;;;1.00;60.21
9969;BME280;5025;48.890;9.278;2023-03-01T03:52:38;99460.66;;;1.01;60.45
9969;BME280;5025;48.890;9.278;2023-03-01T03:55:05;99454.94;;;0.96;60.20
9969;BME280;5025;48.890;9.278;2023-03-01T03:57:37;99455.94;;;0.95;60.43
9969;BME280;5025;48.890;9.278;2023-03-01T04:00:04;99449.63;;;0.96;60.48
9969;BME280;5025;48.890;9.278;2023-03-01T04:02:30;99447.66;;;0.98;60.41
9969;BME280;5025;48.890;9.278;2023-03-01T04:04:55;99440.38;;;1.00;60.28
9969;BME280;5025;48.890;9.278;2023-03-01T04:07:21;99436.47;;;0.94;60.57
9969;BME280;5025;48.890;9.278;2023-03-01T04:09:46;99440.59;;;0.88;60.65
9969;BME280;5025;48.890;9.278;2023-03-01T04:12:11;99436.94;;;0.89;60.51
9969;BME280;5025;48.890;9.278;2023-03-01T04:14:37;99436.47;;;0.94;60.65
9969;BME280;5025;48.890;9.278;2023-03-01T04:17:02;99433.66;;;0.96;60.71
9969;BME280;5025;48.890;9.278;2023-03-01T04:19:31;99438.47;;;0.92;60.67
9969;BME280;5025;48.890;9.278;2023-03-01T04:22:01;99436.63;;;0.93;60.66
9969;BME280;5025;48.890;9.278;2023-03-01T04:24:33;99440.81;;;0.95;60.70
9969;BME280;5025;48.890;9.278;2023-03-01T04:26:58;99434.53;;;0.96;60.53
9969;BME280;5025;48.890;9.278;2023-03-01T04:29:23;99426.53;;;0.96;60.29
9969;BME280;5025;48.890;9.278;2023-03-01T04:31:48;99430.84;;;0.97;60.50
9969;BME280;5025;48.890;9.278;2023-03-01T04:34:14;99430.84;;;0.97;60.36
9969;BME280;5025;48.890;9.278;2023-03-01T04:36:39;99439.38;;;1.01;60.41
9969;BME280;5025;48.890;9.278;2023-03-01T04:39:05;99434.06;;;1.01;60.39
9969;BME280;5025;48.890;9.278;2023-03-01T04:41:37;99433.06;;;1.02;60.27
9969;BME280;5025;48.890;9.278;2023-03-01T04:44:04;99440.06;;;1.03;60.36
9969;BME280;5025;48.890;9.278;2023-03-01T04:46:29;99438.09;;;1.05;60.30
9969;BME280;5025;48.890;9.278;2023-03-01T04:48:55;99441.75;;;1.04;60.48
9969;BME280;5025;48.890;9.278;2023-03-01T04:51:20;99447.75;;;1.06;60.60
9969;BME280;5025;48.890;9.278;2023-03-01T04:53:45;99440.59;;;1.06;60.51
9969;BME280;5025;48.890;9.278;2023-03-01T04:56:11;99427.28;;;1.06;60.53
9969;BME280;5025;48.890;9.278;2023-03-01T04:58:39;99429.28;;;1.04;60.44
9969;BME280;5025;48.890;9.278;2023-03-01T05:01:12;99437.25;;;1.04;60.26
9969;BME280;5025;48.890;9.278;2023-03-01T05:03:41;99439.91;;;1.04;60.72
9969;BME280;5025;48.890;9.278;2023-03-01T05:06:06;99435.56;;;1.03;60.54
9969;BME280;5025;48.890;9.278;2023-03-01T05:08:32;99442.56;;;1.04;60.38
9969;BME280;5025;48.890;9.278;2023-03-01T05:10:59;99439.09;;;1.04;60.62
9969;BME280;5025;48.890;9.278;2023-03-01T05:13:25;99438.09;;;1.05;60.53
9969;BME280;5025;48.890;9.278;2023-03-01T05:15:56;99438.94;;;1.05;60.38
9969;BME280;5025;48.890;9.278;2023-03-01T05:18:22;99424.09;;;1.03;60.38
9969;BME280;5025;48.890;9.278;2023-03-01T05:20:51;99430.09;;;1.05;60.43
9969;BME280;5025;48.890;9.278;2023-03-01T05:23:17;99421.44;;;1.03;60.57
9969;BME280;5025;48.890;9.278;2023-03-01T05:25:43;99421.44;;;1.03;60.59
9969;BME280;5025;48.890;9.278;2023-03-01T05:28:12;99423.97;;;1.04;60.43
9969;BME280;5025;48.890;9.278;2023-03-01T05:30:38;99427.44;;;1.05;60.18
9969;BME280;5025;48.890;9.278;2023-03-01T05:33:04;99421.16;;;1.06;60.41
9969;BME280;5025;48.890;9.278;2023-03-01T05:35:32;99425.50;;;1.07;60.41
9969;BME280;5025;48.890;9.278;2023-03-01T05:37:58;99432.75;;;1.05;60.44
9969;BME280;5025;48.890;9.278;2023-03-01T05:40:23;99430.81;;;1.07;60.36
9969;BME280;5025;48.890;9.278;2023-03-01T05:42:55;99430.81;;;1.07;60.11
9969;BME280;5025;48.890;9.278;2023-03-01T05:45:22;99424.47;;;1.08;60.28
9969;BME280;5025;48.890;9.278;2023-03-01T05:47:48;99436.44;;;1.04;60.60
9969;BME280;5025;48.890;9.278;2023-03-01T05:50:22;99437.41;;;1.03;60.33
9969;BME280;5025;48.890;9.278;2023-03-01T05:52:49;99435.72;;;1.02;60.57
9969;BME280;5025;48.890;9.278;2023-03-01T05:55:17;99424.94;;;1.03;60.56
9969;BME280;5025;48.890;9.278;2023-03-01T05:57:42;99426.63;;;1.04;60.62
9969;BME280;5025;48.890;9.278;2023-03-01T06:00:09;99430.97;;;1.05;60.30
9969;BME280;5025;48.890;9.278;2023-03-01T06:02:34;99424.63;;;1.06;60.40
9969;BME280;5025;48.890;9.278;2023-03-01T06:05:00;99419.31;;;1.06;60.47
9969;BME280;5025;48.890;9.278;2023-03-01T06:07:25;99412.34;;;1.05;60.43
9969;BME280;5025;48.890;9.278;2023-03-01T06:09:51;99426.47;;;1.06;60.46
9969;BME280;5025;48.890;9.278;2023-03-01T06:12:16;99427.28;;;1.06;60.42
9969;BME280;5025;48.890;9.278;2023-03-01T06:14:42;99420.47;;;1.04;60.46
9969;BME280;5025;48.890;9.278;2023-03-01T06:17:07;99438.38;;;1.02;60.58
9969;BME280;5025;48.890;9.278;2023-03-01T06:19:32;99433.06;;;1.02;60.72
9969;BME280;5025;48.890;9.278;2023-03-01T06:21:58;99426.91;;;1.01;60.61
9969;BME280;5025;48.890;9.278;2023-03-01T06:24:23;99424.25;;;1.01;60.74
9969;BME280;5025;48.890;9.278;2023-03-01T06:26:48;99425.09;;;1.02;60.58
9969;BME280;5025;48.890;9.278;2023-03-01T06:29:13;99432.25;;;1.01;60.75
9969;BME280;5025;48.890;9.278;2023-03-01T06:31:39;99415.47;;;1.01;60.70
9969;BME280;5025;48.890;9.278;2023-03-01T06:34:05;99416.59;;;0.98;60.87
9969;BME280;5025;48.890;9.278;2023-03-01T06:36:30;99411.72;;;0.94;60.54
9969;BME280;5025;48.890;9.278;2023-03-01T06:38:55;99420.66;;;0.93;60.63
9969;BME280;5025;48.890;9.278;2023-03-01T06:41:21;99428.94;;;0.89;60.53
9969;BME280;5025;48.890;9.278;2023-03-01T06:43:46;99429.09;;;0.88;60.62
9969;BME280;5025;48.890;9.278;2023-03-01T06:46:11;99423.94;;;0.86;60.89
9969;BME280;5025;48.890;9.278;2023-03-01T06:48:36;99421.72;;;0.82;60.72
9969;BME280;5025;48.890;9.278;2023-03-01T06:51:03;99422.59;;;0.82;60.60
9969;BME280;5025;48.890;9.278;2023-03-01T06:53:29;99422.59;;;0.82;60.61
9969;BME280;5025;48.890;9.278;2023-03-01T06:55:55;99425.25;;;0.82;60.76
9969;BME280;5025;48.890;9.278;2023-03-01T06:58:21;99427.34;;;0.79;60.69
9969;BME280;5025;48.890;9.278;2023-03-01T07:00:46;99426.53;;;0.78;60.54
9969;BME280;5025;48.890;9.278;2023-03-01T07:03:11;99419.22;;;0.80;60.63
9969;BME280;5025;48.890;9.278;2023-03-01T07:05:36;99414.91;;;0.79;60.72
9969;BME280;5025;48.890;9.278;2023-03-01T07:08:02;99419.22;;;0.80;60.69
9969;BME280;5025;48.890;9.278;2023-03-01T07:10:27;99412.00;;;0.73;60.64
9969;BME280;5025;48.890;9.278;2023-03-01T07:12:59;99415.34;;;0.75;60.89
9969;BME280;5025;48.890;9.278;2023-03-01T07:15:25;99425.13;;;0.74;60.87
9969;BME280;5025;48.890;9.278;2023-03-01T07:17:51;99422.47;;;0.74;60.84
9969;BME280;5025;48.890;9.278;2023-03-01T07:20:17;99420.53;;;0.76;60.76
9969;BME280;5025;48.890;9.278;2023-03-01T07:22:43;99420.22;;;0.79;60.82
9969;BME280;5025;48.890;9.278;2023-03-01T07:25:09;99412.25;;;0.79;60.62
9969;BME280;5025;48.890;9.278;2023-03-01T07:27:35;99417.25;;;0.82;60.66
9969;BME280;5025;48.890;9.278;2023-03-01T07:30:01;99413.59;;;0.83;60.78
9969;BME280;5025;48.890;9.278;2023-03-01T07:32:26;99411.66;;;0.85;60.54
9969;BME280;5025;48.890;9.278;2023-03-01T07:34:52;99406.03;;;0.88;60.60
9969;BME280;5025;48.890;9.278;2023-03-01T07:37:17;99408.38;;;0.92;60.75
9969;BME280;5025;48.890;9.278;2023-03-01T07:39:42;99404.56;;;0.94;60.58
9969;BME280;5025;48.890;9.278;2023-03-01T07:42:08;99403.44;;;0.97;60.58
9969;BME280;5025;48.890;9.278;2023-03-01T07:44:33;99406.09;;;0.97;60.59
9969;BME280;5025;48.890;9.278;2023-03-01T07:46:59;99403.13;;;1.00;60.67
9969;BME280;5025;48.890;9.278;2023-03-01T07:49:25;99408.97;;;1.03;60.46
9969;BME280;5025;48.890;9.278;2023-03-01T07:51:51;99401.69;;;1.05;60.40
9969;BME280;5025;48.890;9.278;2023-03-01T07:54:17;99400.16;;;1.03;60.48
9969;BME280;5025;48.890;9.278;2023-03-01T07:56:43;99393.56;;;1.07;60.59
9969;BME280;5025;48.890;9.278;2023-03-01T07:59:08;99395.22;;;1.08;60.52
9969;BME280;5025;48.890;9.278;2023-03-01T08:01:34;99387.09;;;1.10;60.26
9969;BME280;5025;48.890;9.278;2023-03-01T08:03:59;99387.09;;;1.10;60.54
9969;BME280;5025;48.890;9.278;2023-03-01T08:06:25;99381.47;;;1.13;60.30
9969;BME280;5025;48.890;9.278;2023-03-01T08:08:50;99387.03;;;1.19;60.40
9969;BME280;5025;48.890;9.278;2023-03-01T08:11:15;99379.41;;;1.24;60.27
9969;BME280;5025;48.890;9.278;2023-03-01T08:13:42;99380.78;;;1.29;60.15
9969;BME280;5025;48.890;9.278;2023-03-01T08:16:12;99374.09;;;1.24;60.21
9969;BME280;5025;48.890;9.278;2023-03-01T08:18:38;99380.78;;;1.29;60.35
9969;BME280;5025;48.890;9.278;2023-03-01T08:21:16;99374.31;;;1.31;60.14
9969;BME280;5025;48.890;9.278;2023-03-01T08:23:42;99372.00;;;1.36;60.18
9969;BME280;5025;48.890;9.278;2023-03-01T08:26:12;99379.81;;;1.38;60.01
9969;BME280;5025;48.890;9.278;2023-03-01T08:28:38;99380.06;;;1.45;59.92
9969;BME280;5025;48.890;9.278;2023-03-01T08:31:37;99380.13;;;1.53;59.95
9969;BME280;5025;48.890;9.278;2023-03-01T08:34:07;99366.03;;;1.60;59.88
9969;BME280;5025;48.890;9.278;2023-03-01T08:36:37;99372.25;;;1.69;59.78
9969;BME280;5025;48.890;9.278;2023-03-01T08:39:03;99364.94;;;1.71;59.53
9969;BME280;5025;48.890;9.278;2023-03-01T08:41:29;99375.78;;;1.78;59.61
9969;BME280;5025;48.890;9.278;2023-03-01T08:43:55;99373.34;;;1.85;59.55
9969;BME280;5025;48.890;9.278;2023-03-01T08:46:25;99370.03;;;1.91;59.22
9969;BME280;5025;48.890;9.278;2023-03-01T08:48:50;99365.22;;;1.94;59.24
9969;BME280;5025;48.890;9.278;2023-03-01T08:51:17;99365.56;;;2.00;59.37
9969;BME280;5025;48.890;9.278;2023-03-01T08:53:43;99359.59;;;2.06;59.12
9969;BME280;5025;48.890;9.278;2023-03-01T08:56:09;99352.00;;;2.11;58.85
9969;BME280;5025;48.890;9.278;2023-03-01T08:58:35;99349.81;;;2.14;58.80
9969;BME280;5025;48.890;9.278;2023-03-01T09:01:00;99351.38;;;2.25;58.77
9969;BME280;5025;48.890;9.278;2023-03-01T09:03:26;99343.56;;;2.32;58.54
9969;BME280;5025;48.890;9.278;2023-03-01T09:05:52;99346.59;;;2.37;58.41
9969;BME280;5025;48.890;9.278;2023-03-01T09:08:18;99340.78;;;2.42;58.16
9969;BME280;5025;48.890;9.278;2023-03-01T09:10:44;99340.78;;;2.50;58.37
9969;BME280;5025;48.890;9.278;2023-03-01T09:13:10;99337.47;;;2.56;58.12
9969;BME280;5025;48.890;9.278;2023-03-01T09:15:38;99330.81;;;2.60;58.21
9969;BME280;5025;48.890;9.278;2023-03-01T09:18:04;99328.31;;;2.67;57.92
9969;BME280;5025;48.890;9.278;2023-03-01T09:20:31;99324.84;;;2.75;57.95
9969;BME280;5025;48.890;9.278;2023-03-01T09:22:56;99330.16;;;2.83;57.70
9969;BME280;5025;48.890;9.278;2023-03-01T09:25:21;99321.50;;;2.89;57.83
9969;BME280;5025;48.890;9.278;2023-03-01T09:27:50;99311.69;;;2.98;57.55
9969;BME280;5025;48.890;9.278;2023-03-01T09:30:15;99303.50;;;3.08;57.45
9969;BME280;5025;48.890;9.278;2023-03-01T09:32:41;99308.66;;;3.17;57.02
9969;BME280;5025;48.890;9.278;2023-03-01T09:35:08;99315.16;;;3.31;57.01
9969;BME280;5025;48.890;9.278;2023-03-01T09:37:34;99302.28;;;3.43;56.73
9969;BME280;5025;48.890;9.278;2023-03-01T09:40:00;99297.59;;;3.53;56.60
9969;BME280;5025;48.890;9.278;2023-03-01T09:42:25;99300.91;;;3.64;56.49
9969;BME280;5025;48.890;9.278;2023-03-01T09:45:04;99301.25;;;3.69;56.25
9969;BME280;5025;48.890;9.278;2023-03-01T09:47:33;99297.38;;;3.80;56.15
9969;BME280;5025;48.890;9.278;2023-03-01T09:50:13;99301.00;;;3.87;55.61
9969;BME280;5025;48.890;9.278;2023-03-01T09:53:04;99295.63;;;3.95;55.65
9969;BME280;5025;48.890;9.278;2023-03-01T09:55:40;99291.25;;;4.02;55.30
9969;BME280;5025;48.890;9.278;2023-03-01T10:00:56;99283.28;;;4.25;54.97
9969;BME280;5025;48.890;9.278;2023-03-01T10:03:28;99271.53;;;4.35;54.72
9969;BME280;5025;48.890;9.278;2023-03-01T10:05:59;99270.66;;;4.42;54.53
9969;BME280;5025;48.890;9.278;2023-03-01T10:10:56;99267.19;;;4.80;53.99
9969;BME280;5025;48.890;9.278;2023-03-01T10:16:13;99251.78;;;5.05;53.52
9969;BME280;5025;48.890;9.278;2023-03-01T10:18:40;99248.03;;;5.14;53.25
9969;BME280;5025;48.890;9.278;2023-03-01T10:21:16;99245.53;;;5.28;52.89
9969;BME280;5025;48.890;9.278;2023-03-01T10:23:42;99245.56;;;5.43;52.97
9969;BME280;5025;48.890;9.278;2023-03-01T10:29:11;99230.56;;;5.63;52.25
9969;BME280;5025;48.890;9.278;2023-03-01T10:31:39;99220.41;;;5.73;51.90
9969;BME280;5025;48.890;9.278;2023-03-01T10:36:43;99214.59;;;6.00;50.83
9969;BME280;5025;48.890;9.278;2023-03-01T10:39:18;99203.09;;;6.06;50.38
9969;BME280;5025;48.890;9.278;2023-03-01T10:42:10;99204.91;;;6.20;49.79
9969;BME280;5025;48.890;9.278;2023-03-01T10:44:48;99214.31;;;6.31;49.34
9969;BME280;5025;48.890;9.278;2023-03-01T10:49:59;99203.69;;;6.66;48.92
9969;BME280;5025;48.890;9.278;2023-03-01T10:52:29;99203.56;;;6.74;48.20
9969;BME280;5025;48.890;9.278;2023-03-01T10:54:57;99204.63;;;6.80;48.15
9969;BME280;5025;48.890;9.278;2023-03-01T10:57:36;99200.84;;;6.96;47.74
9969;BME280;5025;48.890;9.278;2023-03-01T11:00:25;99194.09;;;7.07;47.17
9969;BME280;5025;48.890;9.278;2023-03-01T11:05:24;99184.75;;;7.31;46.26
9969;BME280;5025;48.890;9.278;2023-03-01T11:07:54;99178.84;;;7.42;46.01
9969;BME280;5025;48.890;9.278;2023-03-01T11:10:29;99182.84;;;7.60;45.83
9969;BME280;5025;48.890;9.278;2023-03-01T11:13:18;99161.41;;;7.80;45.60
9969;BME280;5025;48.890;9.278;2023-03-01T11:18:26;99157.56;;;8.09;44.91
9969;BME280;5025;48.890;9.278;2023-03-01T11:20:53;99161.13;;;8.30;44.76
9969;BME280;5025;48.890;9.278;2023-03-01T11:23:20;99160.97;;;8.45;44.36
9969;BME280;5025;48.890;9.278;2023-03-01T11:25:51;99151.84;;;8.66;44.10
9969;BME280;5025;48.890;9.278;2023-03-01T11:28:21;99142.97;;;8.78;43.88
9969;BME280;5025;48.890;9.278;2023-03-01T11:31:10;99151.66;;;8.94;43.85
9969;BME280;5025;48.890;9.278;2023-03-01T11:33:47;99140.03;;;9.07;43.71
9969;BME280;5025;48.890;9.278;2023-03-01T11:36:28;99129.22;;;9.13;43.41
9969;BME280;5025;48.890;9.278;2023-03-01T11:38:59;99128.41;;;9.13;43.33
9969;BME280;5025;48.890;9.278;2023-03-01T11:41:31;99114.06;;;9.26;43.08
9969;BME280;5025;48.890;9.278;2023-03-01T11:44:01;99115.44;;;9.42;42.88
9969;BME280;5025;48.890;9.278;2023-03-01T11:52:25;99103.13;;;9.66;42.47
9969;BME280;5025;48.890;9.278;2023-03-01T11:55:36;99105.56;;;9.74;42.35
9969;BME280;5025;48.890;9.278;2023-03-01T12:03:23;99083.94;;;9.87;41.81
9969;BME280;5025;48.890;9.278;2023-03-01T12:06:00;99079.94;;;9.97;41.64
9969;BME280;5025;48.890;9.278;2023-03-01T12:08:37;99078.47;;;10.01;41.37
9969;BME280;5025;48.890;9.278;2023-03-01T12:11:45;99070.03;;;10.16;41.27
9969;BME280;5025;48.890;9.278;2023-03-01T12:17:09;99061.03;;;10.29;40.95
9969;BME280;5025;48.890;9.278;2023-03-01T12:25:41;99046.88;;;10.58;40.15
9969;BME280;5025;48.890;9.278;2023-03-01T12:38:53;99026.88;;;11.22;39.52
9969;BME280;5025;48.890;9.278;2023-03-01T12:47:26;99008.44;;;11.61;38.88
9969;BME280;5025;48.890;9.278;2023-03-01T12:50:01;99005.34;;;11.76;38.63
9969;BME280;5025;48.890;9.278;2023-03-01T12:52:51;98999.13;;;11.87;38.50
9969;BME280;5025;48.890;9.278;2023-03-01T12:55:37;98990.81;;;12.00;38.42
9969;BME280;5025;48.890;9.278;2023-03-01T12:58:33;98976.47;;;12.12;38.20
9969;BME280;5025;48.890;9.278;2023-03-01T13:06:44;98964.81;;;12.59;37.67
9969;BME280;5025;48.890;9.278;2023-03-01T13:09:31;98973.28;;;12.74;37.34
9969;BME280;5025;48.890;9.278;2023-03-01T13:12:01;98978.22;;;12.77;36.82
9969;BME280;5025;48.890;9.278;2023-03-01T13:16:58;98971.69;;;12.90;36.41
9969;BME280;5025;48.890;9.278;2023-03-01T13:19:28;98968.28;;;12.95;36.11
9969;BME280;5025;48.890;9.278;2023-03-01T13:22:25;98961.06;;;13.00;35.84
9969;BME280;5025;48.890;9.278;2023-03-01T13:25:01;98969.91;;;13.07;35.80
9969;BME280;5025;48.890;9.278;2023-03-01T13:27:26;98963.38;;;13.20;35.68
9969;BME280;5025;48.890;9.278;2023-03-01T13:29:59;98963.53;;;13.31;35.34
9969;BME280;5025;48.890;9.278;2023-03-01T13:32:36;98962.72;;;13.42;34.89
9969;BME280;5025;48.890;9.278;2023-03-01T13:37:42;98962.09;;;13.69;34.60
9969;BME280;5025;48.890;9.278;2023-03-01T13:42:47;98960.06;;;13.76;33.78
9969;BME280;5025;48.890;9.278;2023-03-01T13:45:36;98963.53;;;13.88;33.75
9969;BME280;5025;48.890;9.278;2023-03-01T13:48:28;98957.25;;;14.05;33.75
9969;BME280;5025;48.890;9.278;2023-03-01T13:51:06;98960.47;;;14.19;33.22
9969;BME280;5025;48.890;9.278;2023-03-01T13:53:43;98951.69;;;14.28;33.05
9969;BME280;5025;48.890;9.278;2023-03-01T13:56:15;98952.66;;;14.39;32.97
9969;BME280;5025;48.890;9.278;2023-03-01T13:58:47;98958.28;;;14.55;32.65
9969;BME280;5025;48.890;9.278;2023-03-01T14:01:25;98959.94;;;14.56;32.46
9969;BME280;5025;48.890;9.278;2023-03-01T14:03:51;98949.38;;;14.59;32.48
9969;BME280;5025;48.890;9.278;2023-03-01T14:06:22;98948.22;;;14.72;32.14
9969;BME280;5025;48.890;9.278;2023-03-01T14:08:50;98948.28;;;14.77;32.28
9969;BME280;5025;48.890;9.278;2023-03-01T14:17:02;98940.38;;;14.98;31.42
9969;BME280;5025;48.890;9.278;2023-03-01T14:19:31;98931.28;;;15.09;31.28
9969;BME280;5025;48.890;9.278;2023-03-01T14:24:38;98945.66;;;15.32;31.17
9969;BME280;5025;48.890;9.278;2023-03-01T14:27:10;98945.50;;;15.44;31.07
9969;BME280;5025;48.890;9.278;2023-03-01T14:29:38;98939.94;;;15.55;30.74
9969;BME280;5025;48.890;9.278;2023-03-01T14:32:12;98946.84;;;15.68;30.65
9969;BME280;5025;48.890;9.278;2023-03-01T14:34:45;98953.50;;;15.77;30.53
9969;BME280;5025;48.890;9.278;2023-03-01T14:37:19;98960.38;;;15.85;30.40
9969;BME280;5025;48.890;9.278;2023-03-01T14:39:44;98956.59;;;15.91;30.21
9969;BME280;5025;48.890;9.278;2023-03-01T14:42:12;98964.19;;;15.89;29.74
9969;BME280;5025;48.890;9.278;2023-03-01T14:44:38;98967.59;;;15.74;29.81
9969;BME280;5025;48.890;9.278;2023-03-01T14:47:03;98965.84;;;15.63;30.08
9969;BME280;5025;48.890;9.278;2023-03-01T14:49:30;98971.56;;;15.62;29.97
9969;BME280;5025;48.890;9.278;2023-03-01T14:51:59;98974.34;;;15.72;29.98
9969;BME280;5025;48.890;9.278;2023-03-01T14:54:37;98978.44;;;15.69;29.99
9969;BME280;5025;48.890;9.278;2023-03-01T14:57:05;98975.13;;;15.67;29.97
9969;BME280;5025;48.890;9.278;2023-03-01T14:59:33;98970.97;;;15.59;29.91
9969;BME280;5025;48.890;9.278;2023-03-01T15:01:59;98968.69;;;15.46;29.99
9969;BME280;5025;48.890;9.278;2023-03-01T15:04:27;98970.13;;;15.32;29.99
9969;BME280;5025;48.890;9.278;2023-03-01T15:06:54;98964.28;;;15.18;30.01
9969;BME280;5025;48.890;9.278;2023-03-01T15:09:21;98972.13;;;15.14;30.20